createdAt,value
2019-02-19T00:01:24.474Z,101339.83
2019-02-19T00:03:54.106Z,101339.54
2019-02-19T00:06:23.898Z,101339.70
2019-02-19T00:08:53.691Z,101336.03
2019-02-19T00:11:23.325Z,101334.51
2019-02-19T00:13:53.195Z,101324.19
2019-02-19T00:16:22.826Z,101324.76
2019-02-19T00:18:52.567Z,101319.88
2019-02-19T00:21:23.876Z,101314.98
2019-02-19T00:23:53.619Z,101319.32
2019-02-19T00:26:23.248Z,101317.74
2019-02-19T00:28:52.973Z,101313.17
2019-02-19T00:31:24.862Z,101309.06
2019-02-19T00:33:54.653Z,101308.70
2019-02-19T00:36:24.280Z,101302.06
2019-02-19T00:38:53.914Z,101294.11
2019-02-19T00:41:23.848Z,101296.66
2019-02-19T00:43:53.866Z,101290.92
2019-02-19T00:46:23.492Z,101287.20
2019-02-19T00:48:53.183Z,101286.86
2019-02-19T00:51:22.819Z,101284.84
2019-02-19T00:53:52.434Z,101281.15
2019-02-19T00:56:22.212Z,101281.19
2019-02-19T00:58:52.006Z,101279.59
2019-02-19T01:01:24.981Z,101271.21
2019-02-19T01:03:59.906Z,101266.64
2019-02-19T01:06:30.715Z,101264.58
2019-02-19T01:09:00.351Z,101260.05
2019-02-19T01:11:30.031Z,101250.03
2019-02-19T01:13:59.665Z,101253.84
2019-02-19T01:16:29.353Z,101253.05
2019-02-19T01:18:59.021Z,101245.12
2019-02-19T01:21:28.772Z,101238.83
2019-02-19T01:23:58.393Z,101232.55
2019-02-19T01:26:28.663Z,101230.45
2019-02-19T01:28:59.869Z,101214.11
2019-02-19T01:31:29.988Z,101213.66
2019-02-19T01:34:00.119Z,101209.02
2019-02-19T01:36:29.858Z,101206.91
2019-02-19T01:38:59.496Z,101200.17
2019-02-19T01:41:30.076Z,101194.72
2019-02-19T01:44:00.100Z,101197.23
2019-02-19T01:46:29.737Z,101193.01
2019-02-19T01:49:00.083Z,101186.80
2019-02-19T01:51:30.096Z,101183.03
2019-02-19T01:54:00.110Z,101175.91
2019-02-19T01:56:29.974Z,101172.55
2019-02-19T01:58:59.596Z,101166.69
2019-02-19T02:01:29.600Z,101168.44
2019-02-19T02:03:59.552Z,101166.77
2019-02-19T02:06:29.187Z,101158.47
2019-02-19T02:09:00.082Z,101155.58
2019-02-19T02:11:29.751Z,101150.98
2019-02-19T02:13:59.381Z,101151.44
2019-02-19T02:16:29.010Z,101145.57
2019-02-19T02:18:58.829Z,101139.79
2019-02-19T02:21:28.744Z,101135.19
2019-02-19T02:23:58.358Z,101137.73
2019-02-19T02:26:28.598Z,101127.27
2019-02-19T02:28:58.803Z,101126.00
2019-02-19T02:31:28.423Z,101118.51
2019-02-19T02:33:58.113Z,101118.09
2019-02-19T02:36:28.670Z,101110.17
2019-02-19T02:38:58.548Z,101106.45
2019-02-19T02:41:28.399Z,101108.58
2019-02-19T02:43:58.419Z,101106.52
2019-02-19T02:46:28.821Z,101095.27
2019-02-19T02:48:58.534Z,101098.20
2019-02-19T02:51:28.274Z,101099.88
2019-02-19T02:53:58.767Z,101092.41
2019-02-19T02:56:28.816Z,101085.75
2019-02-19T02:58:58.556Z,101085.78
2019-02-19T03:01:28.188Z,101081.22
2019-02-19T03:03:57.873Z,101077.45
2019-02-19T03:06:41.331Z,101079.09
2019-02-19T03:09:11.114Z,101074.95
2019-02-19T03:11:41.651Z,101074.53
2019-02-19T03:14:11.279Z,101071.18
2019-02-19T03:16:40.947Z,101073.27
2019-02-19T03:19:10.577Z,101074.95
2019-02-19T03:21:40.682Z,101068.28
2019-02-19T03:24:10.362Z,101063.72
2019-02-19T03:26:39.983Z,101066.27
2019-02-19T03:29:09.613Z,101054.63
2019-02-19T03:31:39.273Z,101047.97
2019-02-19T03:34:08.900Z,101047.14
2019-02-19T03:36:39.501Z,101041.73
2019-02-19T03:39:10.385Z,101037.59
2019-02-19T03:41:41.665Z,101035.11
2019-02-19T03:44:11.672Z,101030.93
2019-02-19T03:46:41.350Z,101033.06
2019-02-19T03:49:11.152Z,101030.59
2019-02-19T03:51:40.789Z,101023.05
2019-02-19T03:54:10.610Z,101025.11
2019-02-19T03:56:40.508Z,101019.25
2019-02-19T03:59:10.213Z,101017.97
2019-02-19T04:01:39.858Z,101012.98
2019-02-19T04:04:11.203Z,101005.87
2019-02-19T04:06:42.503Z,100999.59
2019-02-19T04:09:12.268Z,101002.11
2019-02-19T04:11:42.067Z,101002.98
2019-02-19T04:14:11.798Z,101007.62
2019-02-19T04:16:41.530Z,101003.85
2019-02-19T04:19:12.956Z,101001.38
2019-02-19T04:21:43.465Z,100994.73
2019-02-19T04:24:13.367Z,100995.17
2019-02-19T04:26:43.933Z,100994.34
2019-02-19T04:29:15.131Z,100990.58
2019-02-19T04:31:44.791Z,100983.09
2019-02-19T04:34:14.436Z,100980.58
2019-02-19T04:36:44.065Z,100981.83
2019-02-19T04:39:14.098Z,100974.30
2019-02-19T04:41:44.480Z,100975.56
2019-02-19T04:44:14.219Z,100975.56
2019-02-19T04:46:43.893Z,100978.48
2019-02-19T04:49:14.506Z,100973.44
2019-02-19T04:51:44.803Z,100970.55
2019-02-19T04:54:14.499Z,100963.89
2019-02-19T04:56:44.258Z,100968.08
2019-02-19T04:59:15.550Z,100960.13
2019-02-19T05:01:45.207Z,100950.55
2019-02-19T05:04:14.835Z,100939.33
2019-02-19T05:06:44.583Z,100928.50
2019-02-19T05:09:15.143Z,100920.98
2019-02-19T05:11:44.936Z,100911.85
2019-02-19T05:14:14.560Z,100903.91
2019-02-19T05:16:44.243Z,100892.66
2019-02-19T05:19:13.977Z,100891.02
2019-02-19T05:21:43.995Z,100893.53
2019-02-19T05:24:13.668Z,100891.48
2019-02-19T05:26:44.287Z,100893.19
2019-02-19T05:29:15.006Z,100879.41
2019-02-19T05:31:44.699Z,100886.51
2019-02-19T05:34:14.324Z,100889.88
2019-02-19T05:36:44.062Z,100891.97
2019-02-19T05:39:13.852Z,100893.64
2019-02-19T05:41:43.852Z,100889.02
2019-02-19T05:44:13.486Z,100887.72
2019-02-19T05:46:49.715Z,100883.95
2019-02-19T05:49:14.949Z,100882.64
2019-02-19T05:51:44.587Z,100876.33
2019-02-19T05:54:14.271Z,100877.13
2019-02-19T05:56:44.110Z,100877.92
2019-02-19T05:59:15.629Z,100876.25
2019-02-19T06:01:46.428Z,100882.52
2019-02-19T06:04:16.178Z,100882.91
2019-02-19T06:06:45.798Z,100879.98
2019-02-19T06:09:16.164Z,100878.72
2019-02-19T06:11:45.786Z,100874.12
2019-02-19T06:14:15.419Z,100869.91
2019-02-19T06:16:45.356Z,100867.39
2019-02-19T06:19:16.114Z,100859.86
2019-02-19T06:21:47.126Z,100863.63
2019-02-19T06:24:16.951Z,100872.78
2019-02-19T06:26:46.580Z,100861.91
2019-02-19T06:29:17.386Z,100859.78
2019-02-19T06:31:48.507Z,100857.20
2019-02-19T06:34:18.160Z,100860.44
2019-02-19T06:36:47.893Z,100856.17
2019-02-19T06:39:17.627Z,100851.94
2019-02-19T06:41:47.338Z,100846.87
2019-02-19T06:44:17.008Z,100838.88
2019-02-19T06:46:47.636Z,100831.26
2019-02-19T06:49:17.276Z,100828.70
2019-02-19T06:51:47.381Z,100827.28
2019-02-19T06:54:17.562Z,100823.69
2019-02-19T06:56:47.201Z,100823.98
2019-02-19T06:59:16.839Z,100822.14
2019-02-19T07:02:03.180Z,100820.67
2019-02-19T07:04:34.445Z,100820.91
2019-02-19T07:07:04.200Z,100814.01
2019-02-19T07:09:34.070Z,100810.42
2019-02-19T07:12:03.771Z,100794.23
2019-02-19T07:14:33.403Z,100799.47
2019-02-19T07:17:03.076Z,100800.04
2019-02-19T07:19:32.976Z,100795.56
2019-02-19T07:22:02.605Z,100789.11
2019-02-19T07:24:33.040Z,100789.39
2019-02-19T07:27:04.434Z,100786.68
2019-02-19T07:29:34.335Z,100788.20
2019-02-19T07:32:04.035Z,100792.56
2019-02-19T07:34:33.739Z,100785.89
2019-02-19T07:37:03.382Z,100782.09
2019-02-19T07:39:33.041Z,100777.66
2019-02-19T07:42:03.026Z,100772.71
2019-02-19T07:44:33.447Z,100770.19
2019-02-19T07:47:03.288Z,100763.04
2019-02-19T07:49:32.917Z,100759.47
2019-02-19T07:52:02.549Z,100754.92
2019-02-19T07:54:32.248Z,100753.26
2019-02-19T07:57:01.874Z,100743.81
2019-02-19T07:59:31.780Z,100749.75
2019-02-19T08:02:01.601Z,100751.47
2019-02-19T08:04:31.228Z,100756.90
2019-02-19T08:07:00.856Z,100747.68
2019-02-19T08:09:30.539Z,100741.09
2019-02-19T08:12:00.711Z,100744.09
2019-02-19T08:14:30.344Z,100744.91
2019-02-19T08:17:00.603Z,100734.16
2019-02-19T08:19:31.612Z,100733.92
2019-02-19T08:22:01.994Z,100754.81
2019-02-19T08:24:31.652Z,100761.94
2019-02-19T08:27:01.650Z,100756.87
2019-02-19T08:29:31.343Z,100753.55
2019-02-19T08:32:01.621Z,100753.67
2019-02-19T08:34:31.250Z,100754.19
2019-02-19T08:37:01.052Z,100760.65
2019-02-19T08:39:30.722Z,100773.24
2019-02-19T08:42:00.360Z,100756.84
2019-02-19T08:44:32.723Z,100752.53
2019-02-19T08:47:02.677Z,100737.64
2019-02-19T08:49:32.381Z,100740.12
2019-02-19T08:52:02.133Z,100740.88
2019-02-19T08:54:31.789Z,100740.39
2019-02-19T08:57:02.931Z,100754.91
2019-02-19T08:59:32.582Z,100736.91
2019-02-19T09:02:02.267Z,100727.87
2019-02-19T09:04:32.165Z,100736.48
2019-02-19T09:07:01.791Z,100747.59
2019-02-19T09:09:32.042Z,100739.10
2019-02-19T09:12:01.747Z,100732.75
2019-02-19T09:14:31.511Z,100723.48
2019-02-19T09:17:01.176Z,100735.15
2019-02-19T09:19:30.810Z,100757.47
2019-02-19T09:22:00.431Z,100734.27
2019-02-19T09:24:30.806Z,100740.97
2019-02-19T09:27:00.434Z,100738.25
2019-02-19T09:29:31.019Z,100726.00
2019-02-19T09:32:00.704Z,100735.13
2019-02-19T09:34:30.367Z,100731.50
2019-02-19T09:37:00.174Z,100738.16
2019-02-19T09:39:29.900Z,100722.81
2019-02-19T09:41:59.530Z,100716.08
2019-02-19T09:44:29.259Z,100714.52
2019-02-19T09:46:59.001Z,100717.36
2019-02-19T09:49:28.798Z,100707.36
2019-02-19T09:51:58.553Z,100712.09
2019-02-19T09:54:28.393Z,100706.06
2019-02-19T09:56:59.800Z,100703.52
2019-02-19T09:59:30.339Z,100709.81
2019-02-19T10:02:00.047Z,100707.59
2019-02-19T10:04:30.145Z,100705.58
2019-02-19T10:06:59.896Z,100712.47
2019-02-19T10:09:29.803Z,100719.44
2019-02-19T10:11:59.452Z,100720.27
2019-02-19T10:14:29.152Z,100728.48
2019-02-19T10:17:01.283Z,100725.11
2019-02-19T10:19:30.919Z,100728.77
2019-02-19T10:22:00.572Z,100715.11
2019-02-19T10:24:30.243Z,100722.94
2019-02-19T10:26:59.891Z,100723.78
2019-02-19T10:29:30.601Z,100728.66
2019-02-19T10:32:00.306Z,100715.61
2019-02-19T10:34:29.947Z,100726.91
2019-02-19T10:36:59.584Z,100699.40
2019-02-19T10:39:29.253Z,100723.86
2019-02-19T10:41:58.881Z,100712.39
2019-02-19T10:44:28.517Z,100708.34
2019-02-19T10:46:58.183Z,100716.50
2019-02-19T10:49:28.000Z,100725.47
2019-02-19T10:51:58.202Z,100722.55
2019-02-19T10:54:31.495Z,100721.08
2019-02-19T10:57:01.902Z,100727.66
2019-02-19T10:59:31.706Z,100721.02
2019-02-19T11:02:01.389Z,100735.08
2019-02-19T11:04:31.142Z,100722.22
2019-02-19T11:07:00.750Z,100718.91
2019-02-19T11:09:32.128Z,100720.46
2019-02-19T11:12:02.334Z,100719.97
2019-02-19T11:14:31.973Z,100727.22
2019-02-19T11:17:02.075Z,100734.66
2019-02-19T11:19:32.529Z,100748.58
2019-02-19T11:22:02.673Z,100741.38
2019-02-19T11:24:32.667Z,100733.95
2019-02-19T11:27:02.610Z,100728.64
2019-02-19T11:29:32.647Z,100748.14
2019-02-19T11:32:02.337Z,100735.39
2019-02-19T11:34:31.969Z,100733.47
2019-02-19T11:37:01.617Z,100738.06
2019-02-19T11:39:34.241Z,100733.52
2019-02-19T11:42:05.045Z,100732.27
2019-02-19T11:44:34.686Z,100729.84
2019-02-19T11:47:04.352Z,100722.86
2019-02-19T11:49:34.247Z,100735.92
2019-02-19T11:52:03.998Z,100746.95
2019-02-19T11:54:34.692Z,100772.99
2019-02-19T11:57:04.315Z,100746.27
2019-02-19T11:59:34.632Z,100744.88
2019-02-19T12:02:05.952Z,100755.16
2019-02-19T12:04:35.587Z,100751.21
2019-02-19T12:07:05.356Z,100751.21
2019-02-19T12:09:35.057Z,100758.09
2019-02-19T12:12:04.705Z,100763.02
2019-02-19T12:14:34.350Z,100766.45
2019-02-19T12:17:04.503Z,100768.36
2019-02-19T12:19:34.122Z,100756.09
2019-02-19T12:22:03.760Z,100750.12
2019-02-19T12:24:33.605Z,100781.80
2019-02-19T12:27:03.234Z,100802.72
2019-02-19T12:29:33.441Z,100780.38
2019-02-19T12:32:03.215Z,100787.17
2019-02-19T12:34:32.851Z,100778.42
2019-02-19T12:37:02.494Z,100782.80
2019-02-19T12:39:32.846Z,100775.02
2019-02-19T12:42:02.735Z,100776.48
2019-02-19T12:44:32.357Z,100792.23
2019-02-19T12:47:02.019Z,100810.34
2019-02-19T12:49:32.516Z,100786.63
2019-02-19T12:52:02.903Z,100809.44
2019-02-19T12:54:32.601Z,100810.48
2019-02-19T12:57:02.239Z,100814.73
2019-02-19T12:59:32.041Z,100815.38
2019-02-19T13:02:02.607Z,100824.96
2019-02-19T13:04:32.393Z,100833.59
2019-02-19T13:07:02.080Z,100838.14
2019-02-19T13:09:31.731Z,100842.39
2019-02-19T13:12:01.691Z,100840.02
2019-02-19T13:14:31.364Z,100852.46
2019-02-19T13:17:01.537Z,100839.48
2019-02-19T13:19:32.119Z,100829.28
2019-02-19T13:22:01.746Z,100833.30
2019-02-19T13:24:33.980Z,100842.31
2019-02-19T13:27:03.638Z,100840.21
2019-02-19T13:29:36.230Z,100839.34
2019-02-19T13:32:06.195Z,100839.45
2019-02-19T13:34:36.208Z,100834.21
2019-02-19T13:37:06.315Z,100838.98
2019-02-19T13:39:37.561Z,100834.28
2019-02-19T13:42:07.310Z,100836.45
2019-02-19T13:44:36.939Z,100832.22
2019-02-19T13:47:06.675Z,100828.94
2019-02-19T13:49:36.333Z,100842.06
2019-02-19T13:52:07.678Z,100836.56
2019-02-19T13:54:37.554Z,100839.53
2019-02-19T13:57:09.560Z,100837.22
2019-02-19T13:59:39.343Z,100831.75
2019-02-19T14:02:09.117Z,100822.31
2019-02-19T14:04:39.206Z,100823.58
2019-02-19T14:07:08.844Z,100821.53
2019-02-19T14:09:38.511Z,100838.48
2019-02-19T14:12:08.919Z,100819.17
2019-02-19T14:14:40.188Z,100827.73
2019-02-19T14:17:10.045Z,100816.36
2019-02-19T14:19:43.854Z,100821.41
2019-02-19T14:22:24.431Z,100821.02
2019-02-19T14:25:11.585Z,100830.48
2019-02-19T14:27:59.208Z,100827.48
2019-02-19T14:30:33.156Z,100840.72
2019-02-19T14:33:13.344Z,100821.52
2019-02-19T14:36:02.854Z,100827.84
2019-02-19T14:38:34.264Z,100835.88
2019-02-19T14:41:11.207Z,100829.58
2019-02-19T14:43:48.503Z,100831.31
2019-02-19T14:46:22.509Z,100831.75
2019-02-19T14:48:56.928Z,100831.35
2019-02-19T14:51:44.776Z,100826.83
2019-02-19T14:54:19.302Z,100842.11
2019-02-19T14:56:56.269Z,100838.72
2019-02-19T14:59:31.691Z,100825.13
2019-02-19T15:02:11.750Z,100846.56
2019-02-19T15:04:58.803Z,100824.73
2019-02-19T15:07:35.797Z,100835.28
2019-02-19T15:10:16.244Z,100843.67
2019-02-19T15:12:59.468Z,100831.06
2019-02-19T15:15:39.836Z,100834.52
2019-02-19T15:18:13.651Z,100825.27
2019-02-19T15:20:47.771Z,100831.92
2019-02-19T15:23:35.097Z,100818.41
2019-02-19T15:26:18.890Z,100819.67
2019-02-19T15:29:05.783Z,100802.26
2019-02-19T15:31:46.723Z,100810.57
2019-02-19T15:34:19.569Z,100813.43
2019-02-19T15:37:02.320Z,100805.55
2019-02-19T15:39:36.242Z,100811.77
2019-02-19T15:42:13.468Z,100813.39
2019-02-19T15:44:50.488Z,100821.92
2019-02-19T15:47:24.909Z,100813.17
2019-02-19T15:50:12.327Z,100807.28
2019-02-19T15:52:52.280Z,100795.07
2019-02-19T15:55:35.143Z,100826.27
2019-02-19T15:58:12.407Z,100822.42
2019-02-19T16:00:46.669Z,100800.41
2019-02-19T16:03:24.215Z,100793.11
2019-02-19T16:05:58.147Z,100803.13
2019-02-19T16:08:41.364Z,100812.30
2019-02-19T16:11:12.627Z,100800.88
2019-02-19T16:13:43.908Z,100801.64
2019-02-19T16:16:18.060Z,100807.92
2019-02-19T16:18:49.477Z,100790.20
2019-02-19T16:21:35.966Z,100809.63
2019-02-19T16:24:07.252Z,100798.56
2019-02-19T16:26:50.486Z,100803.19
2019-02-19T16:29:24.417Z,100810.84
2019-02-19T16:32:07.826Z,100787.56
2019-02-19T16:34:39.210Z,100797.25
2019-02-19T16:37:17.293Z,100802.25
2019-02-19T16:39:51.825Z,100803.47
2019-02-19T16:42:39.473Z,100797.47
2019-02-19T16:45:11.976Z,100814.75
2019-02-19T16:47:44.132Z,100786.87
2019-02-19T16:50:24.303Z,100803.75
2019-02-19T16:52:58.679Z,100793.52
2019-02-19T16:55:41.820Z,100806.13
2019-02-19T16:58:18.813Z,100792.09
2019-02-19T17:01:04.919Z,100791.19
2019-02-19T17:03:38.840Z,100789.17
2019-02-19T17:06:16.218Z,100792.85
2019-02-19T17:08:47.879Z,100798.63
2019-02-19T17:11:22.299Z,100797.58
2019-02-19T17:14:10.347Z,100785.70
2019-02-19T17:16:44.389Z,100793.30
2019-02-19T17:19:34.078Z,100801.38
2019-02-19T17:22:23.808Z,100802.27
2019-02-19T17:24:55.272Z,100795.27
2019-02-19T17:27:41.937Z,100808.08
2019-02-19T17:30:31.550Z,100793.80
2019-02-19T17:33:02.894Z,100802.81
2019-02-19T17:35:34.191Z,100801.66
2019-02-19T17:38:14.507Z,100807.70
2019-02-19T17:40:41.199Z,100805.44
2019-02-19T17:43:12.466Z,100791.02
2019-02-19T17:45:52.810Z,100792.10
2019-02-19T17:48:26.796Z,100782.16
2019-02-19T17:51:01.239Z,100780.22
2019-02-19T17:53:35.291Z,100780.61
2019-02-19T17:56:21.889Z,100777.58
2019-02-19T17:58:53.160Z,100778.02
2019-02-19T18:01:30.205Z,100766.63
2019-02-19T18:04:03.938Z,100769.98
2019-02-19T18:06:44.926Z,100772.48
2019-02-19T18:09:17.199Z,100771.94
2019-02-19T18:11:48.504Z,100774.72
2019-02-19T18:14:19.925Z,100781.84
2019-02-19T18:16:51.197Z,100790.97
2019-02-19T18:19:21.934Z,100794.27
2019-02-19T18:21:51.610Z,100802.95
2019-02-19T18:24:21.835Z,100805.58
2019-02-19T18:26:51.468Z,100782.77
2019-02-19T18:29:21.138Z,100823.01
2019-02-19T18:31:50.769Z,100807.86
2019-02-19T18:34:20.674Z,100807.16
2019-02-19T18:36:50.461Z,100789.91
2019-02-19T18:39:20.094Z,100780.72
2019-02-19T18:41:49.727Z,100769.94
2019-02-19T18:44:19.675Z,100778.52
2019-02-19T18:46:49.881Z,100780.81
2019-02-19T18:49:21.969Z,100782.19
2019-02-19T18:51:51.702Z,100785.14
2019-02-19T18:54:22.454Z,100793.65
2019-02-19T18:56:52.078Z,100797.01
2019-02-19T18:59:22.087Z,100776.36
2019-02-19T19:01:52.490Z,100798.64
2019-02-19T19:04:22.113Z,100765.36
2019-02-19T19:06:51.790Z,100771.68
2019-02-19T19:09:21.597Z,100763.00
2019-02-19T19:11:51.214Z,100759.81
2019-02-19T19:14:20.909Z,100759.54
2019-02-19T19:16:50.712Z,100747.25
2019-02-19T19:19:20.506Z,100754.72
2019-02-19T19:21:50.293Z,100767.66
2019-02-19T19:24:19.943Z,100749.87
2019-02-19T19:26:49.830Z,100766.30
2019-02-19T19:29:19.568Z,100761.27
2019-02-19T19:31:49.954Z,100756.62
2019-02-19T19:34:19.723Z,100751.47
2019-02-19T19:36:49.659Z,100758.08
2019-02-19T19:39:20.297Z,100773.14
2019-02-19T19:41:49.707Z,100757.58
2019-02-19T19:44:19.413Z,100762.83
2019-02-19T19:46:49.203Z,100748.69
2019-02-19T19:49:18.843Z,100760.06
2019-02-19T19:51:48.531Z,100773.13
2019-02-19T19:54:18.528Z,100754.97
2019-02-19T19:56:48.252Z,100765.41
2019-02-19T19:59:17.963Z,100744.79
2019-02-19T20:01:47.681Z,100731.28
2019-02-19T20:04:18.704Z,100752.37
2019-02-19T20:06:48.424Z,100740.53
2019-02-19T20:09:18.339Z,100746.84
2019-02-19T20:11:47.954Z,100740.89
2019-02-19T20:14:17.626Z,100752.27
2019-02-19T20:16:47.240Z,100721.94
2019-02-19T20:19:16.885Z,100730.02
2019-02-19T20:21:46.558Z,100740.53
2019-02-19T20:24:16.175Z,100748.58
2019-02-19T20:26:46.179Z,100751.21
2019-02-19T20:29:15.968Z,100744.13
2019-02-19T20:31:48.361Z,100743.73
2019-02-19T20:34:19.057Z,100739.55
2019-02-19T20:36:48.803Z,100737.95
2019-02-19T20:39:18.417Z,100737.73
2019-02-19T20:41:48.107Z,100737.73
2019-02-19T20:44:17.928Z,100746.94
2019-02-19T20:46:47.557Z,100748.73
2019-02-19T20:49:18.716Z,100746.67
2019-02-19T20:51:48.504Z,100749.13
2019-02-19T20:54:18.241Z,100742.78
2019-02-19T20:56:47.870Z,100754.59
2019-02-19T20:59:17.534Z,100742.72
2019-02-19T21:01:47.335Z,100743.14
2019-02-19T21:04:18.636Z,100753.66
2019-02-19T21:06:48.495Z,100745.50
2019-02-19T21:09:18.890Z,100742.17
2019-02-19T21:11:48.530Z,100744.34
2019-02-19T21:14:18.688Z,100746.03
2019-02-19T21:16:48.292Z,100741.02
2019-02-19T21:19:19.623Z,100741.41
2019-02-19T21:21:49.444Z,100732.50
2019-02-19T21:24:19.058Z,100744.70
2019-02-19T21:26:48.694Z,100748.03
2019-02-19T21:29:18.877Z,100749.29
2019-02-19T21:31:48.853Z,100745.83
2019-02-19T21:34:18.490Z,100737.81
2019-02-19T21:36:48.325Z,100750.48
2019-02-19T21:39:17.975Z,100738.68
2019-02-19T21:41:47.764Z,100751.65
2019-02-19T21:44:18.181Z,100753.73
2019-02-19T21:46:47.965Z,100739.80
2019-02-19T21:49:17.588Z,100752.44
2019-02-19T21:51:53.942Z,100750.28
2019-02-19T21:54:18.689Z,100757.50
2019-02-19T21:56:55.702Z,100756.96
2019-02-19T21:59:25.400Z,100757.69
2019-02-19T22:01:55.197Z,100746.75
2019-02-19T22:04:25.163Z,100760.32
2019-02-19T22:06:54.832Z,100745.87
2019-02-19T22:09:24.995Z,100771.59
2019-02-19T22:11:54.755Z,100761.41
2019-02-19T22:14:24.460Z,100760.94
2019-02-19T22:16:55.568Z,100754.22
2019-02-19T22:19:25.318Z,100762.24
2019-02-19T22:22:03.149Z,100756.36
2019-02-19T22:24:37.278Z,100758.13
2019-02-19T22:27:07.067Z,100760.65
2019-02-19T22:29:38.957Z,100758.98
2019-02-19T22:32:11.614Z,100754.47
2019-02-19T22:34:41.323Z,100765.08
2019-02-19T22:37:11.104Z,100764.35
2019-02-19T22:39:40.965Z,100757.63
2019-02-19T22:42:11.666Z,100761.03
2019-02-19T22:44:41.397Z,100765.72
2019-02-19T22:47:11.136Z,100769.55
2019-02-19T22:49:40.819Z,100755.55
2019-02-19T22:52:12.837Z,100740.38
2019-02-19T22:54:46.158Z,100749.76
2019-02-19T22:57:15.838Z,100759.11
2019-02-19T22:59:45.460Z,100748.59
2019-02-19T23:02:15.927Z,100746.47
2019-02-19T23:04:45.838Z,100754.09
2019-02-19T23:07:15.975Z,100745.24
2019-02-19T23:09:45.600Z,100750.80
2019-02-19T23:12:16.507Z,100745.34
2019-02-19T23:14:46.132Z,100742.48
2019-02-19T23:17:15.760Z,100741.69
2019-02-19T23:19:45.708Z,100737.09
2019-02-19T23:22:21.454Z,100727.86
2019-02-19T23:24:46.768Z,100734.61
2019-02-19T23:27:16.561Z,100734.21
2019-02-19T23:29:46.185Z,100741.86
2019-02-19T23:32:16.394Z,100744.78
2019-02-19T23:34:48.478Z,100750.30
2019-02-19T23:37:18.179Z,100734.74
2019-02-19T23:39:48.680Z,100748.20
2019-02-19T23:42:18.369Z,100739.80
2019-02-19T23:44:48.113Z,100749.10
2019-02-19T23:47:17.741Z,100750.41
2019-02-19T23:49:48.918Z,100747.11
2019-02-19T23:52:18.829Z,100765.23
2019-02-19T23:54:48.571Z,100773.23
2019-02-19T23:57:18.247Z,100752.70
2019-02-19T23:59:48.002Z,100747.70
